createdAt,value
2022-11-15T00:01:54.211Z,8.30
2022-11-15T00:04:43.423Z,8.35
2022-11-15T00:07:54.709Z,8.38
2022-11-15T00:10:40.152Z,8.40
2022-11-15T00:13:30.484Z,8.43
2022-11-15T00:16:20.165Z,8.43
2022-11-15T00:19:10.209Z,8.43
2022-11-15T00:21:59.563Z,8.43
2022-11-15T00:24:49.002Z,8.43
2022-11-15T00:27:38.217Z,8.43
2022-11-15T00:30:27.848Z,8.45
2022-11-15T00:33:17.440Z,8.54
2022-11-15T00:36:10.108Z,8.64
2022-11-15T00:38:59.585Z,8.71
2022-11-15T00:41:48.855Z,8.73
2022-11-15T00:44:38.665Z,8.76
2022-11-15T00:47:28.177Z,8.81
2022-11-15T00:50:18.450Z,8.87
2022-11-15T00:53:07.914Z,8.94
2022-11-15T00:55:57.190Z,8.99
2022-11-15T00:58:46.616Z,9.04
2022-11-15T01:01:36.220Z,9.08
2022-11-15T01:04:25.577Z,9.11
2022-11-15T01:07:15.396Z,9.12
2022-11-15T01:10:05.192Z,9.12
2022-11-15T01:12:55.048Z,9.13
2022-11-15T01:15:45.624Z,9.18
2022-11-15T01:18:35.037Z,9.21
2022-11-15T01:21:24.203Z,9.23
2022-11-15T01:24:15.576Z,9.25
2022-11-15T01:27:04.951Z,9.27
2022-11-15T01:29:54.479Z,9.28
2022-11-15T01:32:44.166Z,9.31
2022-11-15T01:35:33.436Z,9.35
2022-11-15T01:38:22.656Z,9.38
2022-11-15T01:41:19.388Z,9.35
2022-11-15T01:44:39.722Z,9.33
2022-11-15T01:47:32.321Z,9.34
2022-11-15T01:50:25.818Z,9.34
2022-11-15T01:53:16.303Z,9.37
2022-11-15T01:56:10.339Z,9.38
2022-11-15T01:59:03.312Z,9.37
2022-11-15T02:01:53.869Z,9.36
2022-11-15T02:04:45.623Z,9.36
2022-11-15T02:07:36.925Z,9.37
2022-11-15T02:10:27.280Z,9.37
2022-11-15T02:13:17.931Z,9.38
2022-11-15T02:16:18.006Z,9.36
2022-11-15T02:19:24.525Z,9.33
2022-11-15T02:22:34.495Z,9.29
2022-11-15T02:25:40.424Z,9.26
2022-11-15T02:28:50.551Z,9.23
2022-11-15T02:31:47.089Z,9.23
2022-11-15T02:34:44.233Z,9.23
2022-11-15T02:37:41.438Z,9.24
2022-11-15T02:40:42.077Z,9.25
2022-11-15T02:43:55.748Z,9.22
2022-11-15T02:47:07.865Z,9.23
2022-11-15T02:50:00.792Z,9.23
2022-11-15T02:52:52.888Z,9.21
2022-11-15T02:55:47.266Z,9.21
2022-11-15T02:59:08.621Z,9.20
2022-11-15T03:02:11.141Z,9.23
2022-11-15T03:05:06.549Z,9.25
2022-11-15T03:08:02.909Z,9.26
2022-11-15T03:11:02.084Z,9.26
2022-11-15T03:13:59.469Z,9.27
2022-11-15T03:16:52.990Z,9.26
2022-11-15T03:19:46.596Z,9.25
2022-11-15T03:22:39.736Z,9.27
2022-11-15T03:25:31.670Z,9.27
2022-11-15T03:28:27.587Z,9.27
2022-11-15T03:31:52.695Z,9.29
2022-11-15T03:34:46.530Z,9.33
2022-11-15T03:37:41.303Z,9.33
2022-11-15T03:40:36.570Z,9.34
2022-11-15T03:43:32.969Z,9.35
2022-11-15T03:46:29.066Z,9.39
2022-11-15T03:49:25.082Z,9.42
2022-11-15T03:52:15.044Z,9.40
2022-11-15T03:55:06.752Z,9.43
2022-11-15T03:57:59.568Z,9.45
2022-11-15T04:00:49.119Z,9.45
2022-11-15T04:03:38.642Z,9.44
2022-11-15T04:06:28.675Z,9.45
2022-11-15T04:09:17.945Z,9.47
2022-11-15T04:12:08.185Z,9.50
2022-11-15T04:15:09.080Z,9.53
2022-11-15T04:17:59.954Z,9.56
2022-11-15T04:21:07.115Z,9.55
2022-11-15T04:24:15.236Z,9.56
2022-11-15T04:27:05.239Z,9.57
2022-11-15T04:29:54.645Z,9.57
2022-11-15T04:32:44.270Z,9.57
2022-11-15T04:35:34.008Z,9.54
2022-11-15T04:38:23.611Z,9.52
2022-11-15T04:41:12.890Z,9.54
2022-11-15T04:44:02.373Z,9.54
2022-11-15T04:46:51.968Z,9.55
2022-11-15T04:49:41.611Z,9.55
2022-11-15T04:52:31.182Z,9.54
2022-11-15T04:55:20.763Z,9.56
2022-11-15T04:58:11.501Z,9.51
2022-11-15T05:01:00.777Z,9.47
2022-11-15T05:04:08.100Z,9.40
2022-11-15T05:06:57.704Z,9.38
2022-11-15T05:09:47.370Z,9.40
2022-11-15T05:12:36.538Z,9.37
2022-11-15T05:15:26.142Z,9.30
2022-11-15T05:18:18.302Z,9.21
2022-11-15T05:21:13.709Z,9.18
2022-11-15T05:24:03.737Z,9.08
2022-11-15T05:26:53.217Z,8.96
2022-11-15T05:29:42.305Z,8.93
2022-11-15T05:32:32.705Z,8.96
2022-11-15T05:35:29.273Z,9.02
2022-11-15T05:38:17.402Z,9.07
2022-11-15T05:41:08.071Z,9.04
2022-11-15T05:43:57.991Z,9.05
2022-11-15T05:46:48.927Z,8.96
2022-11-15T05:49:42.012Z,8.90
2022-11-15T05:52:35.539Z,8.85
2022-11-15T05:55:25.235Z,8.68
2022-11-15T05:58:14.724Z,8.44
2022-11-15T06:01:04.640Z,8.36
2022-11-15T06:03:54.096Z,8.38
2022-11-15T06:06:43.359Z,8.46
2022-11-15T06:09:33.120Z,8.56
2022-11-15T06:12:22.620Z,8.68
2022-11-15T06:15:14.227Z,8.77
2022-11-15T06:18:03.719Z,8.82
2022-11-15T06:20:53.175Z,8.83
2022-11-15T06:23:42.558Z,8.73
2022-11-15T06:26:32.053Z,8.55
2022-11-15T06:29:21.648Z,8.32
2022-11-15T06:32:11.515Z,8.10
2022-11-15T06:35:00.964Z,7.92
2022-11-15T06:37:50.430Z,7.71
2022-11-15T06:40:41.453Z,7.55
2022-11-15T06:43:31.473Z,7.48
2022-11-15T06:46:21.030Z,7.43
2022-11-15T06:49:10.257Z,7.41
2022-11-15T06:51:59.730Z,7.40
2022-11-15T06:54:49.342Z,7.37
2022-11-15T06:57:39.556Z,7.40
2022-11-15T07:00:29.311Z,7.46
2022-11-15T07:03:18.799Z,7.50
2022-11-15T07:06:09.216Z,7.52
2022-11-15T07:08:58.626Z,7.53
2022-11-15T07:11:48.307Z,7.61
2022-11-15T07:14:38.008Z,7.75
2022-11-15T07:17:28.014Z,7.94
2022-11-15T07:20:17.906Z,8.13
2022-11-15T07:23:08.531Z,8.28
2022-11-15T07:26:00.299Z,8.43
2022-11-15T07:28:50.091Z,8.57
2022-11-15T07:31:40.040Z,8.71
2022-11-15T07:34:29.591Z,8.87
2022-11-15T07:37:19.248Z,8.98
2022-11-15T07:40:11.331Z,9.15
2022-11-15T07:43:05.178Z,9.34
2022-11-15T07:45:58.862Z,9.52
2022-11-15T07:48:49.068Z,9.71
2022-11-15T07:51:38.610Z,9.95
2022-11-15T07:54:27.970Z,10.19
2022-11-15T07:57:17.368Z,10.44
2022-11-15T08:00:09.182Z,10.69
2022-11-15T08:03:05.288Z,10.91
2022-11-15T08:05:55.214Z,11.12
2022-11-15T08:08:44.679Z,11.28
2022-11-15T08:11:34.393Z,11.42
2022-11-15T08:14:24.044Z,11.59
2022-11-15T08:17:13.275Z,11.75
2022-11-15T08:20:02.623Z,11.84
2022-11-15T08:22:52.188Z,11.93
2022-11-15T08:25:42.094Z,12.12
2022-11-15T08:28:31.686Z,12.29
2022-11-15T08:31:21.879Z,12.45
2022-11-15T08:34:11.119Z,12.59
2022-11-15T08:37:00.716Z,12.69
2022-11-15T08:39:50.389Z,12.76
2022-11-15T08:42:39.673Z,12.81
2022-11-15T08:45:29.110Z,12.87
2022-11-15T08:48:18.476Z,12.97
2022-11-15T08:51:08.552Z,13.07
2022-11-15T08:53:58.196Z,13.16
2022-11-15T08:56:47.435Z,13.24
2022-11-15T08:59:36.744Z,13.28
2022-11-15T09:02:26.215Z,13.31
2022-11-15T09:05:16.439Z,13.31
2022-11-15T09:08:19.044Z,13.30
2022-11-15T09:11:17.565Z,13.24
2022-11-15T09:14:07.166Z,13.22
2022-11-15T09:16:56.567Z,13.27
2022-11-15T09:19:46.187Z,13.26
2022-11-15T09:22:35.551Z,13.27
2022-11-15T09:25:25.206Z,13.34
2022-11-15T09:28:14.519Z,13.36
2022-11-15T09:31:06.146Z,13.39
2022-11-15T09:33:55.883Z,13.46
2022-11-15T09:36:45.500Z,13.49
2022-11-15T09:39:35.026Z,13.55
2022-11-15T09:42:41.407Z,13.56
2022-11-15T09:45:36.958Z,13.55
2022-11-15T09:48:39.603Z,13.57
2022-11-15T09:51:35.362Z,13.60
2022-11-15T09:57:15.953Z,13.68
2022-11-15T10:00:44.861Z,13.71
2022-11-15T10:03:16.234Z,13.71
2022-11-15T10:05:48.523Z,13.72
2022-11-15T10:08:48.338Z,13.75
2022-11-15T10:11:36.759Z,13.73
2022-11-15T10:14:15.681Z,13.75
2022-11-15T10:17:28.355Z,13.77
2022-11-15T10:20:11.519Z,13.75
2022-11-15T10:22:47.901Z,13.69
2022-11-15T10:25:23.760Z,13.65
2022-11-15T10:28:06.454Z,13.56
2022-11-15T10:30:39.856Z,13.61
2022-11-15T10:33:19.797Z,13.60
2022-11-15T10:35:50.688Z,13.58
2022-11-15T10:38:21.465Z,13.57
2022-11-15T10:41:08.141Z,13.57
2022-11-15T10:43:38.772Z,13.52
2022-11-15T10:46:45.575Z,13.46
2022-11-15T10:49:18.111Z,13.42
2022-11-15T10:51:51.650Z,13.41
2022-11-15T10:54:30.714Z,13.43
2022-11-15T10:57:08.260Z,13.46
2022-11-15T10:59:40.757Z,13.49
2022-11-15T11:02:31.794Z,13.47
2022-11-15T11:05:03.633Z,13.48
2022-11-15T11:07:36.837Z,13.51
2022-11-15T11:10:49.776Z,13.55
2022-11-15T11:13:26.178Z,13.58
2022-11-15T11:16:02.175Z,13.63
2022-11-15T11:18:39.271Z,13.65
2022-11-15T11:21:16.506Z,13.63
2022-11-15T11:23:54.098Z,13.62
2022-11-15T11:26:43.170Z,13.58
2022-11-15T11:29:29.163Z,13.56
2022-11-15T11:32:05.237Z,13.53
2022-11-15T11:34:52.533Z,13.49
2022-11-15T11:37:32.911Z,13.44
2022-11-15T11:40:15.618Z,13.40
2022-11-15T11:42:59.180Z,13.37
2022-11-15T11:45:50.824Z,13.35
2022-11-15T11:48:32.218Z,13.34
2022-11-15T11:51:08.366Z,13.33
2022-11-15T11:53:46.813Z,13.29
2022-11-15T11:56:26.366Z,13.23
2022-11-15T11:59:02.669Z,13.17
2022-11-15T12:01:38.335Z,13.16
2022-11-15T12:04:16.451Z,13.13
2022-11-15T12:06:54.605Z,13.08
2022-11-15T12:09:33.242Z,13.02
2022-11-15T12:12:06.780Z,13.00
2022-11-15T12:14:42.747Z,13.02
2022-11-15T12:17:14.300Z,13.05
2022-11-15T12:19:45.660Z,13.07
2022-11-15T12:22:23.773Z,13.06
2022-11-15T12:24:59.452Z,13.06
2022-11-15T12:27:35.764Z,13.03
2022-11-15T12:30:11.588Z,12.99
2022-11-15T12:32:51.772Z,12.98
2022-11-15T12:35:29.824Z,12.98
2022-11-15T12:38:00.817Z,12.96
2022-11-15T12:40:40.451Z,12.95
2022-11-15T12:43:39.788Z,12.94
2022-11-15T12:46:21.631Z,12.88
2022-11-15T12:48:55.986Z,12.83
2022-11-15T12:52:07.158Z,12.80
2022-11-15T12:54:59.177Z,12.79
2022-11-15T12:57:41.776Z,12.78
2022-11-15T13:00:45.825Z,12.74
2022-11-15T13:03:55.662Z,12.70
2022-11-15T13:06:43.037Z,12.65
2022-11-15T13:09:48.358Z,12.61
2022-11-15T13:12:57.646Z,12.51
2022-11-15T13:15:57.097Z,12.51
2022-11-15T13:18:35.065Z,12.45
2022-11-15T13:21:38.256Z,12.39
2022-11-15T13:24:15.418Z,12.36
2022-11-15T13:26:47.579Z,12.41
2022-11-15T13:29:21.938Z,12.42
2022-11-15T13:31:53.003Z,12.42
2022-11-15T13:37:34.483Z,12.35
2022-11-15T13:40:25.013Z,12.32
2022-11-15T13:42:55.743Z,12.29
2022-11-15T13:45:27.383Z,12.23
2022-11-15T13:48:00.240Z,12.15
2022-11-15T13:50:36.005Z,12.09
2022-11-15T13:53:07.805Z,12.02
2022-11-15T13:55:39.429Z,11.95
2022-11-15T13:58:14.336Z,11.90
2022-11-15T14:00:47.475Z,11.85
2022-11-15T14:03:28.760Z,11.78
2022-11-15T14:06:13.003Z,11.69
2022-11-15T14:08:44.885Z,11.61
2022-11-15T14:11:21.786Z,11.54
2022-11-15T14:14:13.943Z,11.48
2022-11-15T14:16:46.271Z,11.41
2022-11-15T14:19:38.510Z,11.36
2022-11-15T14:22:26.492Z,11.27
2022-11-15T14:25:18.785Z,11.18
2022-11-15T14:28:13.965Z,11.13
2022-11-15T14:30:48.182Z,11.08
2022-11-15T14:33:24.425Z,11.03
2022-11-15T14:35:56.937Z,10.98
2022-11-15T14:38:28.051Z,10.95
2022-11-15T14:40:59.335Z,10.91
2022-11-15T14:43:30.032Z,10.86
2022-11-15T14:46:01.319Z,10.82
2022-11-15T14:48:32.462Z,10.76
2022-11-15T14:51:03.174Z,10.72
2022-11-15T14:53:33.868Z,10.66
2022-11-15T14:56:04.705Z,10.60
2022-11-15T14:58:35.558Z,10.53
2022-11-15T15:01:15.767Z,10.46
2022-11-15T15:03:46.500Z,10.40
2022-11-15T15:06:18.426Z,10.34
2022-11-15T15:08:51.561Z,10.28
2022-11-15T15:11:25.636Z,10.21
2022-11-15T15:13:58.238Z,10.17
2022-11-15T15:16:29.319Z,10.12
2022-11-15T15:19:00.026Z,10.07
2022-11-15T15:21:36.930Z,10.00
2022-11-15T15:24:10.774Z,9.93
2022-11-15T15:26:42.044Z,9.85
2022-11-15T15:29:12.683Z,9.79
2022-11-15T15:31:43.265Z,9.75
2022-11-15T15:34:16.892Z,9.71
2022-11-15T15:36:47.941Z,9.67
2022-11-15T15:39:18.651Z,9.64
2022-11-15T15:41:52.332Z,9.59
2022-11-15T15:44:28.281Z,9.52
2022-11-15T15:46:59.929Z,9.46
2022-11-15T15:49:30.746Z,9.43
2022-11-15T15:52:01.375Z,9.38
2022-11-15T15:54:32.094Z,9.35
2022-11-15T15:57:02.991Z,9.32
2022-11-15T15:59:33.787Z,9.25
2022-11-15T16:02:04.485Z,9.26
2022-11-15T16:04:35.294Z,9.24
2022-11-15T16:07:06.546Z,9.20
2022-11-15T16:09:54.912Z,9.17
2022-11-15T16:12:26.091Z,9.15
2022-11-15T16:14:57.038Z,9.12
2022-11-15T16:17:34.111Z,9.11
2022-11-15T16:20:06.491Z,9.06
2022-11-15T16:22:37.410Z,9.03
2022-11-15T16:25:09.511Z,9.01
2022-11-15T16:27:45.846Z,8.97
2022-11-15T16:30:20.531Z,8.94
2022-11-15T16:32:52.043Z,8.91
2022-11-15T16:35:22.904Z,8.90
2022-11-15T16:37:53.879Z,8.86
2022-11-15T16:40:29.138Z,8.82
2022-11-15T16:43:03.059Z,8.80
2022-11-15T16:45:35.576Z,8.78
2022-11-15T16:48:06.835Z,8.75
2022-11-15T16:50:41.238Z,8.71
2022-11-15T16:53:12.343Z,8.67
2022-11-15T16:55:43.131Z,8.65
2022-11-15T16:58:13.884Z,8.62
2022-11-15T17:00:44.718Z,8.59
2022-11-15T17:03:15.583Z,8.53
2022-11-15T17:05:46.632Z,8.50
2022-11-15T17:08:17.536Z,8.49
2022-11-15T17:10:48.279Z,8.49
2022-11-15T17:13:19.085Z,8.46
2022-11-15T17:15:49.846Z,8.42
2022-11-15T17:18:21.421Z,8.38
2022-11-15T17:20:52.272Z,8.35
2022-11-15T17:23:23.165Z,8.33
2022-11-15T17:26:23.840Z,8.33
2022-11-15T17:28:59.249Z,8.32
2022-11-15T17:31:33.676Z,8.29
2022-11-15T17:34:05.690Z,8.23
2022-11-15T17:36:37.210Z,8.18
2022-11-15T17:39:08.431Z,8.15
2022-11-15T17:41:39.294Z,8.14
2022-11-15T17:44:10.092Z,8.14
2022-11-15T17:46:40.801Z,8.14
2022-11-15T17:49:11.507Z,8.13
2022-11-15T17:51:45.086Z,8.11
2022-11-15T17:54:20.488Z,8.06
2022-11-15T17:56:51.176Z,8.01
2022-11-15T17:59:21.946Z,7.95
2022-11-15T18:01:54.022Z,7.90
2022-11-15T18:04:28.304Z,7.86
2022-11-15T18:06:59.224Z,7.82
2022-11-15T18:09:30.456Z,7.77
2022-11-15T18:12:01.173Z,7.75
2022-11-15T18:14:32.235Z,7.75
2022-11-15T18:17:02.963Z,7.76
2022-11-15T18:19:33.835Z,7.77
2022-11-15T18:22:05.672Z,7.79
2022-11-15T18:24:38.588Z,7.80
2022-11-15T18:27:09.607Z,7.80
2022-11-15T18:29:40.427Z,7.81
2022-11-15T18:32:15.123Z,7.82
2022-11-15T18:34:46.057Z,7.80
2022-11-15T18:37:16.855Z,7.78
2022-11-15T18:39:52.705Z,7.75
2022-11-15T18:42:24.662Z,7.70
2022-11-15T18:44:55.496Z,7.66
2022-11-15T18:47:26.391Z,7.64
2022-11-15T18:49:59.740Z,7.63
2022-11-15T18:52:30.527Z,7.61
2022-11-15T18:55:02.509Z,7.59
2022-11-15T18:57:33.604Z,7.59
2022-11-15T19:00:05.147Z,7.55
2022-11-15T19:02:35.907Z,7.53
2022-11-15T19:05:07.770Z,7.52
2022-11-15T19:07:38.535Z,7.52
2022-11-15T19:10:11.996Z,7.52
2022-11-15T19:12:42.683Z,7.50
2022-11-15T19:15:14.112Z,7.50
2022-11-15T19:17:44.709Z,7.49
2022-11-15T19:20:15.496Z,7.49
2022-11-15T19:22:46.325Z,7.49
2022-11-15T19:25:18.923Z,7.50
2022-11-15T19:27:49.607Z,7.49
2022-11-15T19:30:20.791Z,7.47
2022-11-15T19:32:51.453Z,7.43
2022-11-15T19:35:22.585Z,7.40
2022-11-15T19:37:53.292Z,7.39
2022-11-15T19:40:24.057Z,7.39
2022-11-15T19:42:54.761Z,7.38
2022-11-15T19:45:25.491Z,7.36
2022-11-15T19:47:56.779Z,7.33
2022-11-15T19:50:27.619Z,7.31
2022-11-15T19:52:59.610Z,7.26
2022-11-15T19:55:30.508Z,7.23
2022-11-15T19:58:01.430Z,7.20
2022-11-15T20:00:32.228Z,7.15
2022-11-15T20:03:03.061Z,7.13
2022-11-15T20:05:33.911Z,7.12
2022-11-15T20:08:04.764Z,7.07
2022-11-15T20:10:35.925Z,7.06
2022-11-15T20:13:06.668Z,7.07
2022-11-15T20:15:37.357Z,7.06
2022-11-15T20:18:09.080Z,7.05
2022-11-15T20:20:40.097Z,7.04
2022-11-15T20:23:11.290Z,7.03
2022-11-15T20:25:44.728Z,7.03
2022-11-15T20:28:18.517Z,7.04
2022-11-15T20:30:52.547Z,7.04
2022-11-15T20:33:23.900Z,7.02
2022-11-15T20:35:54.784Z,7.02
2022-11-15T20:38:25.686Z,7.02
2022-11-15T20:41:00.214Z,7.03
2022-11-15T20:43:31.505Z,7.03
2022-11-15T20:46:02.377Z,7.04
2022-11-15T20:48:33.316Z,7.04
2022-11-15T20:51:09.035Z,7.05
2022-11-15T20:53:39.805Z,7.05
2022-11-15T20:56:14.029Z,7.06
2022-11-15T20:58:45.871Z,7.05
2022-11-15T21:01:23.263Z,7.06
2022-11-15T21:03:54.728Z,7.05
2022-11-15T21:06:26.764Z,7.03
2022-11-15T21:09:16.210Z,7.03
2022-11-15T21:12:04.650Z,7.02
2022-11-15T21:14:35.302Z,7.02
2022-11-15T21:17:06.673Z,6.99
2022-11-15T21:19:37.662Z,7.00
2022-11-15T21:22:10.192Z,7.00
2022-11-15T21:24:41.164Z,7.01
2022-11-15T21:27:12.132Z,7.02
2022-11-15T21:29:45.700Z,7.02
2022-11-15T21:32:17.788Z,7.02
2022-11-15T21:34:48.591Z,7.02
2022-11-15T21:37:19.457Z,7.02
2022-11-15T21:39:50.208Z,7.03
2022-11-15T21:42:21.060Z,7.04
2022-11-15T21:44:51.781Z,7.04
2022-11-15T21:47:22.383Z,7.04
2022-11-15T21:49:53.059Z,7.04
2022-11-15T21:52:23.794Z,7.00
2022-11-15T21:54:54.411Z,6.97
2022-11-15T21:57:25.169Z,6.97
2022-11-15T22:00:13.590Z,6.98
2022-11-15T22:02:44.318Z,6.98
2022-11-15T22:05:14.998Z,6.99
2022-11-15T22:07:45.728Z,6.97
2022-11-15T22:10:16.658Z,6.95
2022-11-15T22:12:47.454Z,6.95
2022-11-15T22:15:18.230Z,6.97
2022-11-15T22:18:01.272Z,6.97
2022-11-15T22:20:47.235Z,6.97
2022-11-15T22:23:18.094Z,6.97
2022-11-15T22:25:48.701Z,6.96
2022-11-15T22:28:20.164Z,6.94
2022-11-15T22:30:52.694Z,6.91
2022-11-15T22:33:29.289Z,6.90
2022-11-15T22:36:00.415Z,6.92
2022-11-15T22:38:32.701Z,6.91
2022-11-15T22:41:03.733Z,6.91
2022-11-15T22:43:34.711Z,6.93
2022-11-15T22:46:06.835Z,6.96
2022-11-15T22:48:39.454Z,6.97
2022-11-15T22:51:10.645Z,6.98
2022-11-15T22:53:41.212Z,6.98
2022-11-15T22:56:15.165Z,6.98
2022-11-15T22:58:49.925Z,6.98
2022-11-15T23:01:23.072Z,6.99
2022-11-15T23:03:53.760Z,7.00
2022-11-15T23:06:24.643Z,7.02
2022-11-15T23:08:55.227Z,6.99
2022-11-15T23:11:43.684Z,6.98
2022-11-15T23:14:14.279Z,6.97
2022-11-15T23:16:44.955Z,7.04
2022-11-15T23:19:15.646Z,7.13
2022-11-15T23:22:05.403Z,7.25
2022-11-15T23:24:36.068Z,7.36
2022-11-15T23:27:08.527Z,7.45
2022-11-15T23:29:53.423Z,7.51
2022-11-15T23:32:40.340Z,7.57
2022-11-15T23:35:11.744Z,7.62
2022-11-15T23:37:42.472Z,7.66
2022-11-15T23:40:14.947Z,7.72
2022-11-15T23:42:45.666Z,7.77
2022-11-15T23:45:18.653Z,7.83
2022-11-15T23:47:49.277Z,7.90
2022-11-15T23:50:20.426Z,7.93
2022-11-15T23:52:51.102Z,7.96
2022-11-15T23:55:21.788Z,7.98
2022-11-15T23:57:52.500Z,7.93
